Time,TemperatureF,DewpointF,PressureIn,WindDirection,WindDirectionDegrees,WindSpeedMPH,WindSpeedGustMPH,Humidity,HourlyPrecipIn,Conditions,Clouds,dailyrainin,SoftwareType,DateUTC
2013-03-31 00:00:00,57.6,53.5,30.27,ENE,68,2.0,4.0,86,0.23,,---,0.00,VWS V14.01,2013-03-31 05:00:00,
2013-03-31 00:10:00,57.2,53.1,30.27,ENE,68,3.0,5.0,86,0.03,,---,0.00,VWS V14.01,2013-03-31 05:10:00,
2013-03-31 00:20:00,56.7,52.9,30.27,ENE,68,2.0,4.0,87,0.01,,---,0.00,VWS V14.01,2013-03-31 05:20:00,
2013-03-31 00:30:00,56.3,52.5,30.26,ENE,68,2.0,4.0,87,0.01,,---,0.00,VWS V14.01,2013-03-31 05:30:00,
2013-03-31 00:40:00,55.9,52.1,30.26,ENE,68,0.0,2.0,87,0.00,,---,0.00,VWS V14.01,2013-03-31 05:40:00,
2013-03-31 00:50:00,55.6,51.8,30.26,ENE,68,1.0,3.0,87,0.00,,---,0.00,VWS V14.01,2013-03-31 05:50:00,
2013-03-31 01:00:00,55.3,51.5,30.26,ENE,68,1.0,3.0,87,0.00,,---,0.00,VWS V14.01,2013-03-31 06:00:00,
2013-03-31 01:10:00,55.0,51.5,30.26,ENE,68,0.0,1.0,88,0.00,,---,0.00,VWS V14.01,2013-03-31 06:10:00,
2013-03-31 01:20:00,54.7,51.2,30.26,ENE,68,0.0,0.0,88,0.00,,---,0.00,VWS V14.01,2013-03-31 06:20:00,
2013-03-31 01:30:00,54.4,50.9,30.26,ENE,68,0.0,0.0,88,0.00,,---,0.00,VWS V14.01,2013-03-31 06:30:00,
2013-03-31 01:40:00,53.9,50.4,30.26,ENE,68,0.0,0.0,88,0.00,,---,0.00,VWS V14.01,2013-03-31 06:40:00,
2013-03-31 01:50:00,53.5,50.0,30.26,ENE,68,0.0,0.0,88,0.00,,---,0.00,VWS V14.01,2013-03-31 06:50:00,
2013-03-31 02:00:00,53.2,49.7,30.25,ENE,68,0.0,0.0,88,0.00,,---,0.00,VWS V14.01,2013-03-31 07:00:00,
2013-03-31 02:10:00,53.1,50.0,30.25,ENE,68,1.0,3.0,89,0.00,,---,0.00,VWS V14.01,2013-03-31 07:10:00,
2013-03-31 02:20:00,53.1,50.0,30.26,ENE,68,1.0,3.0,89,0.00,,---,0.00,VWS V14.01,2013-03-31 07:20:00,
2013-03-31 02:30:00,53.2,50.0,30.26,ENE,68,0.0,1.0,89,0.00,,---,0.00,VWS V14.01,2013-03-31 07:30:00,
2013-03-31 02:40:00,53.1,50.0,30.26,ENE,68,0.0,1.0,89,0.00,,---,0.00,VWS V14.01,2013-03-31 07:40:00,
2013-03-31 02:50:00,52.8,49.7,30.25,ENE,68,0.0,0.0,89,0.00,,---,0.00,VWS V14.01,2013-03-31 07:50:00,
2013-03-31 03:00:00,52.3,49.2,30.25,ENE,68,0.0,0.0,89,0.00,,---,0.00,VWS V14.01,2013-03-31 08:00:00,
2013-03-31 03:10:00,51.9,49.1,30.25,ENE,68,0.0,0.0,90,0.00,,---,0.00,VWS V14.01,2013-03-31 08:10:00,
2013-03-31 03:20:00,51.7,48.9,30.25,ENE,68,0.0,0.0,90,0.00,,---,0.00,VWS V14.01,2013-03-31 08:20:00,
2013-03-31 03:30:00,51.6,48.8,30.24,ENE,68,0.0,0.0,90,0.00,,---,0.00,VWS V14.01,2013-03-31 08:30:00,
2013-03-31 03:40:00,51.4,48.6,30.24,ENE,68,0.0,0.0,90,0.00,,---,0.00,VWS V14.01,2013-03-31 08:40:00,
2013-03-31 03:50:00,51.4,48.6,30.23,ENE,68,0.0,0.0,90,0.00,,---,0.00,VWS V14.01,2013-03-31 08:50:00,
2013-03-31 04:00:00,51.3,48.5,30.23,ENE,68,0.0,0.0,90,0.00,,---,0.00,VWS V14.01,2013-03-31 09:00:00,
2013-03-31 04:10:00,51.3,48.5,30.23,ENE,68,0.0,2.0,90,0.00,,---,0.00,VWS V14.01,2013-03-31 09:10:00,
2013-03-31 04:20:00,51.6,49.1,30.22,ENE,68,1.0,3.0,91,0.00,,---,0.00,VWS V14.01,2013-03-31 09:20:00,
2013-03-31 04:30:00,51.9,49.4,30.22,ENE,68,0.0,2.0,91,0.00,,---,0.00,VWS V14.01,2013-03-31 09:30:00,
2013-03-31 04:40:00,52.0,49.5,30.22,ENE,68,0.0,0.0,91,0.00,,---,0.00,VWS V14.01,2013-03-31 09:40:00,
2013-03-31 04:50:00,52.3,49.8,30.22,ENE,68,0.0,0.0,91,0.00,,---,0.00,VWS V14.01,2013-03-31 09:50:00,
2013-03-31 05:00:00,52.6,50.0,30.23,ENE,68,0.0,1.0,91,0.00,,---,0.00,VWS V14.01,2013-03-31 10:00:00,
2013-03-31 05:10:00,53.1,50.8,30.23,ENE,68,0.0,2.0,92,0.00,,---,0.00,VWS V14.01,2013-03-31 10:10:00,
2013-03-31 05:20:00,53.5,51.2,30.25,ENE,68,0.0,3.0,92,0.00,,---,0.00,VWS V14.01,2013-03-31 10:20:00,
2013-03-31 05:30:00,53.8,51.5,30.25,ENE,68,0.0,0.0,92,0.00,,---,0.00,VWS V14.01,2013-03-31 10:30:00,
2013-03-31 05:40:00,53.9,51.6,30.25,ENE,68,0.0,0.0,92,0.00,,---,0.00,VWS V14.01,2013-03-31 10:40:00,
2013-03-31 05:50:00,53.9,51.6,30.25,ENE,68,0.0,0.0,92,0.00,,---,0.00,VWS V14.01,2013-03-31 10:50:00,
2013-03-31 06:00:00,53.9,51.6,30.24,ENE,68,1.0,3.0,92,0.00,,---,0.00,VWS V14.01,2013-03-31 11:00:00,
2013-03-31 06:10:00,54.7,52.7,30.24,ENE,68,2.0,5.0,93,0.00,,---,0.00,VWS V14.01,2013-03-31 11:10:00,
2013-03-31 06:20:00,55.1,53.1,30.26,NW,315,2.0,5.0,93,0.00,,---,0.00,VWS V14.01,2013-03-31 11:20:00,
2013-03-31 06:30:00,55.4,53.4,30.31,NNW,338,12.0,24.0,93,0.01,,---,0.01,VWS V14.01,2013-03-31 11:30:00,
2013-03-31 06:40:00,54.4,52.1,30.31,NNW,338,13.0,24.0,92,0.01,,---,0.01,VWS V14.01,2013-03-31 11:40:00,
2013-03-31 06:50:00,53.2,50.7,30.31,NNE,22,11.0,20.0,91,0.01,,---,0.01,VWS V14.01,2013-03-31 11:50:00,
2013-03-31 07:00:00,52.9,50.3,30.29,NNE,22,8.0,18.0,91,0.01,,---,0.01,VWS V14.01,2013-03-31 12:00:00,
2013-03-31 07:10:00,52.6,50.0,30.29,North,0,6.0,13.0,91,0.01,,---,0.01,VWS V14.01,2013-03-31 12:10:00,
2013-03-31 07:20:00,52.5,50.0,30.30,North,0,4.0,8.0,91,0.01,,---,0.01,VWS V14.01,2013-03-31 12:20:00,
2013-03-31 07:30:00,52.3,49.8,30.30,North,0,4.0,10.0,91,0.01,,---,0.01,VWS V14.01,2013-03-31 12:30:00,
2013-03-31 07:40:00,52.2,49.4,30.30,NE,45,4.0,11.0,90,0.00,,---,0.01,VWS V14.01,2013-03-31 12:40:00,
2013-03-31 07:50:00,52.2,49.4,30.31,NNE,22,3.0,6.0,90,0.00,,---,0.01,VWS V14.01,2013-03-31 12:50:00,
2013-03-31 08:00:00,52.2,49.4,30.33,NNE,22,2.0,7.0,90,0.00,,---,0.01,VWS V14.01,2013-03-31 13:00:00,
2013-03-31 08:10:00,52.0,49.2,30.33,ENE,68,4.0,10.0,90,0.00,,---,0.01,VWS V14.01,2013-03-31 13:10:00,
2013-03-31 08:20:00,51.9,49.1,30.33,ENE,68,5.0,9.0,90,0.00,,---,0.01,VWS V14.01,2013-03-31 13:20:00,
2013-03-31 08:30:00,51.9,49.1,30.34,NNE,22,3.0,7.0,90,0.00,,---,0.01,VWS V14.01,2013-03-31 13:30:00,
2013-03-31 08:40:00,52.0,49.2,30.34,ENE,68,3.0,5.0,90,0.00,,---,0.01,VWS V14.01,2013-03-31 13:40:00,
2013-03-31 08:50:00,52.2,49.4,30.33,ENE,68,3.0,6.0,90,0.00,,---,0.01,VWS V14.01,2013-03-31 13:50:00,
2013-03-31 09:00:00,52.3,49.5,30.33,ENE,68,3.0,6.0,90,0.00,,---,0.01,VWS V14.01,2013-03-31 14:00:00,
2013-03-31 09:10:00,52.9,50.0,30.33,ENE,68,3.0,6.0,90,0.00,,---,0.01,VWS V14.01,2013-03-31 14:10:00,
2013-03-31 09:20:00,53.6,50.7,30.33,ENE,68,3.0,5.0,90,0.00,,---,0.01,VWS V14.01,2013-03-31 14:20:00,
2013-03-31 09:30:00,51.9,49.1,30.34,NNE,22,3.0,7.0,90,0.00,,---,0.01,VWS V14.01,2013-03-31 14:30:00,
2013-03-31 09:33:00,53.6,50.7,30.33,ENE,68,3.0,5.0,90,0.00,,---,0.01,VWS V14.01,2013-03-31 14:33:00,
2013-03-31 09:38:00,54.1,50.9,30.31,NE,46,4.0,4.0,89,0.00,,---,0.01,VWS V14.01,2013-03-31 14:38:00,
2013-03-31 09:40:00,53.9,50.1,30.31,NE,54,6.0,12.0,87,0.00,,---,0.01,VWS V14.01,2013-03-31 14:40:00,
2013-03-31 09:43:00,54.1,51.2,30.31,NE,47,7.0,9.0,90,0.00,,---,0.01,VWS V14.01,2013-03-31 14:43:00,
2013-03-31 09:48:00,53.9,49.8,30.32,ENE,71,6.0,13.0,86,0.00,,---,0.01,VWS V14.01,2013-03-31 14:48:00,
2013-03-31 09:50:00,53.9,50.1,30.32,ENE,68,7.0,13.0,87,0.00,,---,0.01,VWS V14.01,2013-03-31 14:50:00,
2013-03-31 09:53:00,53.9,49.8,30.32,ENE,66,4.0,8.0,86,0.00,,---,0.01,VWS V14.01,2013-03-31 14:53:00,
2013-03-31 09:58:00,54.5,50.7,30.32,East,87,5.0,8.0,87,0.00,,---,0.01,VWS V14.01,2013-03-31 14:58:00,
2013-03-31 10:00:00,54.5,50.7,30.33,ENE,71,5.0,10.0,87,0.00,,---,0.01,VWS V14.01,2013-03-31 15:00:00,
2013-03-31 10:03:00,54.5,50.4,30.33,East,79,4.0,8.0,86,0.00,,---,0.01,VWS V14.01,2013-03-31 15:03:00,
2013-03-31 10:08:00,54.5,50.4,30.33,ENE,74,4.0,8.0,86,0.00,,---,0.01,VWS V14.01,2013-03-31 15:08:00,
2013-03-31 10:10:00,54.4,50.3,30.33,East,88,8.0,13.0,86,0.00,,---,0.01,VWS V14.01,2013-03-31 15:10:00,
2013-03-31 10:13:00,54.4,50.3,30.33,ENE,74,4.0,9.0,86,0.00,,---,0.01,VWS V14.01,2013-03-31 15:13:00,
2013-03-31 10:18:00,54.5,50.1,30.34,East,79,5.0,10.0,85,0.00,,---,0.01,VWS V14.01,2013-03-31 15:18:00,
2013-03-31 10:20:00,54.7,50.6,30.34,East,88,6.0,10.0,86,0.00,,---,0.01,VWS V14.01,2013-03-31 15:20:00,
2013-03-31 10:23:00,54.8,50.7,30.34,ENE,70,4.0,6.0,86,0.00,,---,0.01,VWS V14.01,2013-03-31 15:23:00,
2013-03-31 10:28:00,55.3,51.2,30.34,ENE,61,6.0,7.0,86,0.00,,---,0.01,VWS V14.01,2013-03-31 15:28:00,
2013-03-31 10:30:00,55.4,51.3,30.34,East,86,9.0,9.0,86,0.00,,---,0.01,VWS V14.01,2013-03-31 15:30:00,
2013-03-31 10:33:00,55.4,51.0,30.34,ENE,67,5.0,10.0,85,0.00,,---,0.01,VWS V14.01,2013-03-31 15:33:00,
2013-03-31 10:38:00,55.9,51.8,30.34,East,84,7.0,10.0,86,0.00,,---,0.01,VWS V14.01,2013-03-31 15:38:00,
2013-03-31 10:40:00,56.2,51.8,30.34,ENE,62,5.0,11.0,85,0.00,,---,0.01,VWS V14.01,2013-03-31 15:40:00,
2013-03-31 10:43:00,56.0,51.2,30.34,NE,37,6.0,9.0,84,0.00,,---,0.01,VWS V14.01,2013-03-31 15:43:00,
2013-03-31 10:48:00,55.9,51.1,30.34,NE,55,9.0,9.0,84,0.00,,---,0.01,VWS V14.01,2013-03-31 15:48:00,
2013-03-31 10:50:00,55.9,51.1,30.34,NE,53,6.0,9.0,84,0.00,,---,0.01,VWS V14.01,2013-03-31 15:50:00,
2013-03-31 10:53:00,56.0,50.9,30.34,ESE,105,3.0,6.0,83,0.00,,---,0.01,VWS V14.01,2013-03-31 15:53:00,
2013-03-31 10:58:00,56.5,51.4,30.34,East,92,7.0,7.0,83,0.00,,---,0.01,VWS V14.01,2013-03-31 15:58:00,
2013-03-31 11:00:00,56.7,51.6,30.33,East,84,8.0,10.0,83,0.00,,---,0.01,VWS V14.01,2013-03-31 16:00:00,
2013-03-31 11:03:00,57.2,52.1,30.33,East,82,4.0,10.0,83,0.00,,---,0.01,VWS V14.01,2013-03-31 16:03:00,
2013-03-31 11:08:00,57.8,52.7,30.33,ENE,75,4.0,10.0,83,0.00,,---,0.01,VWS V14.01,2013-03-31 16:08:00,
2013-03-31 11:10:00,58.1,53.0,30.33,East,91,8.0,10.0,83,0.00,,---,0.01,VWS V14.01,2013-03-31 16:10:00,
2013-03-31 11:13:00,58.4,52.6,30.33,ENE,78,6.0,9.0,81,0.00,,---,0.01,VWS V14.01,2013-03-31 16:13:00,
2013-03-31 11:18:00,59.0,53.2,30.33,NE,55,5.0,9.0,81,0.00,,---,0.01,VWS V14.01,2013-03-31 16:18:00,
2013-03-31 11:20:00,59.3,53.1,30.33,ENE,67,9.0,10.0,80,0.00,,---,0.01,VWS V14.01,2013-03-31 16:20:00,
2013-03-31 11:23:00,59.6,53.1,30.33,ENE,75,2.0,12.0,79,0.00,,---,0.01,VWS V14.01,2013-03-31 16:23:00,
2013-03-31 11:28:00,60.1,52.9,30.33,ENE,72,4.0,12.0,77,0.00,,---,0.01,VWS V14.01,2013-03-31 16:28:00,
2013-03-31 11:30:00,60.4,52.8,30.33,ENE,72,5.0,12.0,76,0.00,,---,0.01,VWS V14.01,2013-03-31 16:30:00,
2013-03-31 11:33:00,60.7,52.7,30.33,ESE,113,7.0,10.0,75,0.00,,---,0.01,VWS V14.01,2013-03-31 16:33:00,
2013-03-31 11:38:00,61.0,52.3,30.33,ENE,65,10.0,12.0,73,0.00,,---,0.01,VWS V14.01,2013-03-31 16:38:00,
2013-03-31 11:40:00,61.2,51.3,30.33,ENE,73,4.0,12.0,70,0.00,,---,0.01,VWS V14.01,2013-03-31 16:40:00,
2013-03-31 11:43:00,61.3,51.5,30.33,NNE,22,3.0,10.0,70,0.00,,---,0.01,VWS V14.01,2013-03-31 16:43:00,
2013-03-31 11:48:00,61.5,49.6,30.33,East,90,3.0,10.0,65,0.00,,---,0.01,VWS V14.01,2013-03-31 16:48:00,
2013-03-31 11:50:00,61.8,50.7,30.33,ENE,77,5.0,10.0,67,0.00,,---,0.01,VWS V14.01,2013-03-31 16:50:00,
2013-03-31 11:53:00,62.3,50.8,30.33,NE,40,4.0,9.0,66,0.00,,---,0.01,VWS V14.01,2013-03-31 16:53:00,
2013-03-31 11:58:00,62.9,51.4,30.33,NE,35,2.0,9.0,66,0.00,,---,0.01,VWS V14.01,2013-03-31 16:58:00,
2013-03-31 12:00:00,62.9,50.1,30.33,NNE,21,3.0,9.0,63,0.00,,---,0.01,VWS V14.01,2013-03-31 17:00:00,
2013-03-31 12:03:00,63.1,49.5,30.33,NE,49,3.0,7.0,61,0.00,,---,0.01,VWS V14.01,2013-03-31 17:03:00,
2013-03-31 12:08:00,63.5,48.9,30.33,ENE,72,7.0,12.0,59,0.00,,---,0.01,VWS V14.01,2013-03-31 17:08:00,
2013-03-31 12:10:00,63.7,50.0,30.33,ENE,72,7.0,12.0,61,0.00,,---,0.01,VWS V14.01,2013-03-31 17:10:00,
2013-03-31 12:13:00,64.0,50.3,30.33,ESE,109,0.0,7.0,61,0.00,,---,0.01,VWS V14.01,2013-03-31 17:13:00,
2013-03-31 12:18:00,64.5,49.4,30.33,ENE,73,7.0,7.0,58,0.00,,---,0.01,VWS V14.01,2013-03-31 17:18:00,
2013-03-31 12:20:00,64.8,51.0,30.33,ENE,75,1.0,7.0,61,0.00,,---,0.01,VWS V14.01,2013-03-31 17:20:00,
2013-03-31 12:23:00,64.8,50.6,30.33,ESE,110,2.0,10.0,60,0.00,,---,0.01,VWS V14.01,2013-03-31 17:23:00,
2013-03-31 12:28:00,65.0,51.2,30.33,NE,36,5.0,12.0,61,0.00,,---,0.01,VWS V14.01,2013-03-31 17:28:00,
2013-03-31 12:30:00,64.7,49.6,30.33,NE,42,2.0,12.0,58,0.00,,---,0.01,VWS V14.01,2013-03-31 17:30:00,
2013-03-31 12:33:00,64.2,49.6,30.33,ENE,68,5.0,6.0,59,0.00,,---,0.01,VWS V14.01,2013-03-31 17:33:00,
2013-03-31 12:38:00,64.2,46.2,30.33,NW,314,1.0,9.0,52,0.00,,---,0.01,VWS V14.01,2013-03-31 17:38:00,
2013-03-31 12:40:00,64.7,47.7,30.33,ENE,63,9.0,13.0,54,0.00,,---,0.01,VWS V14.01,2013-03-31 17:40:00,
2013-03-31 12:43:00,65.2,48.2,30.33,NNE,20,3.0,11.0,54,0.00,,---,0.01,VWS V14.01,2013-03-31 17:43:00,
2013-03-31 12:48:00,65.2,48.2,30.33,NE,51,9.0,13.0,54,0.00,,---,0.01,VWS V14.01,2013-03-31 17:48:00,
2013-03-31 12:50:00,65.0,47.5,30.33,ENE,70,3.0,13.0,53,0.00,,---,0.01,VWS V14.01,2013-03-31 17:50:00,
2013-03-31 12:53:00,64.8,46.8,30.33,NNE,28,15.0,15.0,52,0.00,,---,0.01,VWS V14.01,2013-03-31 17:53:00,
2013-03-31 12:58:00,65.3,47.8,30.33,NE,56,3.0,15.0,53,0.00,,---,0.01,VWS V14.01,2013-03-31 17:58:00,
2013-03-31 13:00:00,65.5,47.9,30.33,ENE,68,6.0,15.0,53,0.00,,---,0.01,VWS V14.01,2013-03-31 18:00:00,
2013-03-31 13:03:00,65.8,48.2,30.33,East,80,7.0,12.0,53,0.00,,---,0.01,VWS V14.01,2013-03-31 18:03:00,
2013-03-31 13:08:00,66.3,50.2,30.33,ENE,61,6.0,12.0,56,0.00,,---,0.01,VWS V14.01,2013-03-31 18:08:00,
2013-03-31 13:10:00,66.1,48.0,30.33,ENE,75,11.0,15.0,52,0.00,,---,0.01,VWS V14.01,2013-03-31 18:10:00,
2013-03-31 13:13:00,66.3,48.2,30.33,ENE,66,5.0,14.0,52,0.00,,---,0.01,VWS V14.01,2013-03-31 18:13:00,
2013-03-31 13:18:00,66.0,47.4,30.33,NE,49,5.0,14.0,51,0.00,,---,0.01,VWS V14.01,2013-03-31 18:18:00,
2013-03-31 13:20:00,66.3,49.2,30.33,ENE,67,8.0,14.0,54,0.00,,---,0.01,VWS V14.01,2013-03-31 18:20:00,
2013-03-31 13:23:00,66.3,47.7,30.33,East,101,5.0,12.0,51,0.00,,---,0.01,VWS V14.01,2013-03-31 18:23:00,
2013-03-31 13:28:00,66.8,48.1,30.33,NNE,30,11.0,13.0,51,0.00,,---,0.01,VWS V14.01,2013-03-31 18:28:00,
2013-03-31 13:30:00,66.4,46.1,30.33,NE,47,3.0,13.0,48,0.00,,---,0.01,VWS V14.01,2013-03-31 18:30:00,
2013-03-31 13:33:00,66.1,46.9,30.33,NNW,340,6.0,10.0,50,0.00,,---,0.01,VWS V14.01,2013-03-31 18:33:00,
2013-03-31 13:38:00,65.3,47.2,30.33,North,5,6.0,11.0,52,0.00,,---,0.01,VWS V14.01,2013-03-31 18:38:00,
2013-03-31 13:40:00,65.3,46.2,30.33,North,5,5.0,11.0,50,0.00,,---,0.01,VWS V14.01,2013-03-31 18:40:00,
2013-03-31 13:43:00,64.7,46.2,30.33,North,355,1.0,5.0,51,0.00,,---,0.01,VWS V14.01,2013-03-31 18:43:00,
2013-03-31 13:48:00,66.3,47.1,30.32,NNW,345,7.0,14.0,50,0.00,,---,0.01,VWS V14.01,2013-03-31 18:48:00,
2013-03-31 13:50:00,66.4,47.2,30.32,NW,324,3.0,14.0,50,0.00,,---,0.01,VWS V14.01,2013-03-31 18:50:00,
2013-03-31 13:53:00,66.1,46.4,30.32,NW,310,5.0,7.0,49,0.00,,---,0.01,VWS V14.01,2013-03-31 18:53:00,
2013-03-31 14:00:00,66.1,45.9,30.32,NNE,22,3.0,8.0,48,0.00,,---,0.00,VWS V14.01,2013-03-31 19:00:00,
2013-03-31 14:10:00,66.3,43.8,30.32,NW,315,6.0,14.0,44,0.00,,---,0.00,VWS V14.01,2013-03-31 19:10:00,
2013-03-31 14:20:00,66.4,45.6,30.32,North,0,7.0,14.0,47,0.00,,---,0.00,VWS V14.01,2013-03-31 19:20:00,
2013-03-31 14:30:00,66.4,45.6,30.31,NE,45,5.0,16.0,47,0.00,,---,0.00,VWS V14.01,2013-03-31 19:30:00,
2013-03-31 14:40:00,66.3,45.5,30.31,NNE,22,6.0,13.0,47,0.00,,---,0.00,VWS V14.01,2013-03-31 19:40:00,
2013-03-31 14:50:00,67.3,46.4,30.30,North,0,5.0,11.0,47,0.00,,---,0.00,VWS V14.01,2013-03-31 19:50:00,
2013-03-31 15:00:00,66.8,45.9,30.31,North,0,4.0,13.0,47,0.00,,---,0.00,VWS V14.01,2013-03-31 20:00:00,
2013-03-31 15:10:00,67.8,43.3,30.31,NE,45,4.0,11.0,41,0.00,,---,0.00,VWS V14.01,2013-03-31 20:10:00,
2013-03-31 15:20:00,68.1,46.6,30.30,NE,45,7.0,14.0,46,0.00,,---,0.00,VWS V14.01,2013-03-31 20:20:00,
2013-03-31 15:30:00,66.4,45.6,30.31,NNW,338,6.0,13.0,47,0.00,,---,0.00,VWS V14.01,2013-03-31 20:30:00,
2013-03-31 15:40:00,69.8,50.9,30.31,North,0,3.0,11.0,51,0.00,,---,0.00,VWS V14.01,2013-03-31 20:40:00,
2013-03-31 15:50:00,68.1,48.2,30.30,NE,45,4.0,12.0,49,0.00,,---,0.00,VWS V14.01,2013-03-31 20:50:00,
2013-03-31 16:00:00,68.6,45.8,30.30,ENE,68,3.0,11.0,44,0.00,,---,0.00,VWS V14.01,2013-03-31 21:00:00,
2013-03-31 16:10:00,68.4,43.8,30.30,NNW,338,4.0,10.0,41,0.00,,---,0.00,VWS V14.01,2013-03-31 21:10:00,
2013-03-31 16:20:00,68.4,43.8,30.29,North,0,4.0,13.0,41,0.00,,---,0.00,VWS V14.01,2013-03-31 21:20:00,
2013-03-31 16:30:00,68.3,43.1,30.28,NW,315,5.0,12.0,40,0.00,,---,0.00,VWS V14.01,2013-03-31 21:30:00,
2013-03-31 16:40:00,68.3,45.0,30.28,NW,315,4.0,10.0,43,0.00,,---,0.00,VWS V14.01,2013-03-31 21:40:00,
2013-03-31 16:50:00,68.6,44.0,30.28,NNW,338,4.0,12.0,41,0.00,,---,0.00,VWS V14.01,2013-03-31 21:50:00,
2013-03-31 17:00:00,68.8,44.2,30.27,NW,315,4.0,10.0,41,0.00,,---,0.00,VWS V14.01,2013-03-31 22:00:00,
2013-03-31 17:10:00,68.8,40.8,30.27,North,0,5.0,14.0,36,0.00,,---,0.00,VWS V14.01,2013-03-31 22:10:00,
2013-03-31 17:20:00,68.6,41.3,30.28,NNW,338,5.0,12.0,37,0.00,,---,0.00,VWS V14.01,2013-03-31 22:20:00,
2013-03-31 17:30:00,68.8,40.1,30.28,NNW,338,4.0,9.0,35,0.00,,---,0.00,VWS V14.01,2013-03-31 22:30:00,
2013-03-31 17:40:00,68.8,40.8,30.28,NNW,338,2.0,7.0,36,0.00,,---,0.00,VWS V14.01,2013-03-31 22:40:00,
2013-03-31 17:50:00,68.6,39.1,30.28,NNW,338,4.0,11.0,34,0.00,,---,0.00,VWS V14.01,2013-03-31 22:50:00,
2013-03-31 18:00:00,68.3,38.9,30.28,NNW,338,5.0,12.0,34,0.00,,---,0.00,VWS V14.01,2013-03-31 23:00:00,
2013-03-31 18:10:00,68.1,37.2,30.28,NW,315,3.0,10.0,32,0.00,,---,0.00,VWS V14.01,2013-03-31 23:10:00,
2013-03-31 18:20:00,67.4,36.5,30.28,NW,315,5.0,11.0,32,0.00,,---,0.00,VWS V14.01,2013-03-31 23:20:00,
2013-03-31 18:30:00,67.3,37.2,30.28,NW,315,4.0,10.0,33,0.00,,---,0.00,VWS V14.01,2013-03-31 23:30:00,
2013-03-31 18:40:00,66.6,36.6,30.28,NNW,338,5.0,9.0,33,0.00,,---,0.00,VWS V14.01,2013-03-31 23:40:00,
2013-03-31 18:50:00,66.4,36.5,30.28,NNW,338,4.0,9.0,33,0.00,,---,0.00,VWS V14.01,2013-03-31 23:50:00,
2013-03-31 19:00:00,66.1,36.9,30.29,NNW,338,3.0,6.0,34,0.00,,---,0.00,VWS V14.01,2013-04-01 00:00:00,
2013-03-31 19:10:00,65.6,37.2,30.29,NW,315,5.0,10.0,35,0.00,,---,0.00,VWS V14.01,2013-04-01 00:10:00,
2013-03-31 19:20:00,64.8,37.2,30.30,NW,315,5.0,12.0,36,0.00,,---,0.00,VWS V14.01,2013-04-01 00:20:00,
2013-03-31 19:30:00,64.2,38.1,30.30,NW,315,4.0,9.0,38,0.00,,---,0.00,VWS V14.01,2013-04-01 00:30:00,
2013-03-31 19:40:00,63.4,38.7,30.30,NW,315,3.0,7.0,40,0.00,,---,0.00,VWS V14.01,2013-04-01 00:40:00,
2013-03-31 19:50:00,62.7,38.7,30.31,NW,315,2.0,5.0,41,0.00,,---,0.00,VWS V14.01,2013-04-01 00:50:00,
2013-03-31 20:00:00,62.0,39.3,30.31,NW,315,2.0,5.0,43,0.00,,---,0.00,VWS V14.01,2013-04-01 01:00:00,
2013-03-31 20:10:00,61.3,40.4,30.31,NW,315,3.0,9.0,46,0.00,,---,0.00,VWS V14.01,2013-04-01 01:10:00,
2013-03-31 20:20:00,60.7,40.4,30.31,NNW,338,3.0,6.0,47,0.00,,---,0.00,VWS V14.01,2013-04-01 01:20:00,
2013-03-31 20:30:00,60.1,40.9,30.32,NNW,338,2.0,5.0,49,0.00,,---,0.00,VWS V14.01,2013-04-01 01:30:00,
2013-03-31 20:40:00,59.5,41.4,30.32,NW,315,2.0,5.0,51,0.00,,---,0.00,VWS V14.01,2013-04-01 01:40:00,
2013-03-31 20:50:00,58.9,41.8,30.33,NW,315,1.0,4.0,53,0.00,,---,0.00,VWS V14.01,2013-04-01 01:50:00,
2013-03-31 21:00:00,58.3,42.2,30.33,NW,315,1.0,3.0,55,0.00,,---,0.00,VWS V14.01,2013-04-01 02:00:00,
2013-03-31 21:10:00,57.3,42.2,30.33,NW,315,1.0,3.0,57,0.00,,---,0.00,VWS V14.01,2013-04-01 02:10:00,
2013-03-31 21:20:00,56.5,41.9,30.33,NW,315,1.0,3.0,58,0.00,,---,0.00,VWS V14.01,2013-04-01 02:20:00,
2013-03-31 21:30:00,55.6,42.4,30.34,NW,315,0.0,2.0,61,0.00,,---,0.00,VWS V14.01,2013-04-01 02:30:00,
2013-03-31 21:40:00,54.7,42.0,30.34,NW,315,0.0,4.0,62,0.00,,---,0.00,VWS V14.01,2013-04-01 02:40:00,
2013-03-31 21:50:00,53.9,42.0,30.35,NW,315,0.0,2.0,64,0.00,,---,0.00,VWS V14.01,2013-04-01 02:50:00,
2013-03-31 22:00:00,52.8,41.4,30.35,NW,315,0.0,0.0,65,0.00,,---,0.00,VWS V14.01,2013-04-01 03:00:00,
2013-03-31 22:10:00,51.6,40.6,30.35,NW,315,0.0,1.0,66,0.00,,---,0.00,VWS V14.01,2013-04-01 03:10:00,
2013-03-31 22:20:00,50.8,40.6,30.36,NW,315,0.0,1.0,68,0.00,,---,0.00,VWS V14.01,2013-04-01 03:20:00,
2013-03-31 22:30:00,50.2,40.1,30.37,NW,315,0.0,0.0,68,0.00,,---,0.00,VWS V14.01,2013-04-01 03:30:00,
2013-03-31 22:40:00,49.6,39.9,30.37,NW,315,0.0,0.0,69,0.00,,---,0.00,VWS V14.01,2013-04-01 03:40:00,
2013-03-31 22:50:00,49.1,39.4,30.37,NW,315,0.0,1.0,69,0.00,,---,0.00,VWS V14.01,2013-04-01 03:50:00,
2013-03-31 23:00:00,48.6,39.3,30.37,NW,315,0.0,0.0,70,0.00,,---,0.00,VWS V14.01,2013-04-01 04:00:00,
2013-03-31 23:10:00,48.2,38.9,30.37,NW,315,0.0,0.0,70,0.00,,---,0.00,VWS V14.01,2013-04-01 04:10:00,
2013-03-31 23:20:00,47.6,39.0,30.37,NW,315,0.0,1.0,72,0.00,,---,0.00,VWS V14.01,2013-04-01 04:20:00,
2013-03-31 23:30:00,47.1,38.5,30.37,NW,315,0.0,0.0,72,0.00,,---,0.00,VWS V14.01,2013-04-01 04:30:00,
2013-03-31 23:40:00,46.7,38.5,30.37,NW,315,0.0,0.0,73,0.00,,---,0.00,VWS V14.01,2013-04-01 04:40:00,
2013-03-31 23:50:00,46.4,38.6,30.37,NW,315,0.0,0.0,74,0.00,,---,0.00,VWS V14.01,2013-04-01 04:50:00,